This is the latest recevied weather packets stored in our database for station/object K9JWM. If no packets are shown the sender has not sent any weather packets the latest 1 day(s).
| Time | Temp. | Humidity | Pressure | Rain* | Wind** | Luminosity | Snow |
|---|---|---|---|---|---|---|---|
| 1777991529 | 2.22° C | 66% | 1007.2 hPa | 0 mm | 3.58 m/s, 261° | - | - |
| 1777990629 | 2.22° C | 62% | 1007.1 hPa | 0 mm | 0.45 m/s, 266° | - | - |
| 1777989730 | 1.67° C | 65% | 1007.1 hPa | 0 mm | 3.58 m/s, 311° | - | - |
| 1777988830 | 1.67° C | 66% | 1007 hPa | 0 mm | 3.58 m/s, 263° | - | - |
| 1777987929 | 1.67° C | 68% | 1006.9 hPa | 0 mm | 2.68 m/s, 245° | - | - |
| 1777987030 | 1.67° C | 69% | 1006.6 hPa | 0 mm | 2.24 m/s, 291° | - | - |
| 1777986130 | 1.11° C | 71% | 1006.3 hPa | 0 mm | 2.24 m/s, 290° | - | - |
| 1777985229 | 1.11° C | 71% | 1006.1 hPa | 0 mm | 2.24 m/s, 260° | - | - |
| 1777984329 | 1.11° C | 73% | 1005.9 hPa | 0 mm | 3.58 m/s, 292° | - | - |
| 1777983430 | 1.11° C | 77% | 1005.6 hPa | 0 mm | 3.13 m/s, 272° | - | - |
| 1777982528 | 1.11° C | 79% | 1005.4 hPa | 0 mm | 2.68 m/s, 267° | - | - |
| 1777981629 | 1.11° C | 76% | 1005.2 hPa | 0 mm | 1.34 m/s, 270° | - | - |
| 1777980729 | 1.11° C | 77% | 1005 hPa | 0 mm | 2.68 m/s, 267° | - | - |
| 1777979830 | 1.11° C | 75% | 1004.7 hPa | 0 mm | 2.68 m/s, 258° | - | - |
| 1777978929 | 1.67° C | 76% | 1004.4 hPa | 0 mm | 2.68 m/s, 267° | - | - |
| 1777978029 | 1.67° C | 74% | 1004.3 hPa | 0 mm | 2.68 m/s, 252° | - | - |
| 1777977130 | 1.67° C | 75% | 1004.3 hPa | 0 mm | 2.68 m/s, 249° | - | - |
| 1777976229 | 1.67° C | 74% | 1004.1 hPa | 0 mm | 2.68 m/s, 267° | - | - |
| 1777975330 | 1.67° C | 72% | 1004.1 hPa | 0 mm | 1.34 m/s, 264° | - | - |
| 1777974430 | 2.22° C | 72% | 1003.8 hPa | 0 mm | 1.34 m/s, 255° | - | - |
| 1777973529 | 2.22° C | 71% | 1003.7 hPa | 0 mm | 1.34 m/s, 248° | - | - |
| 1777972629 | 2.22° C | 68% | 1003.5 hPa | 0 mm | 0.89 m/s, 266° | - | - |
| 1777971730 | 2.78° C | 68% | 1003.3 hPa | 0 mm | 0.89 m/s, 267° | - | - |
* Rain latest hour (hover to see other rain measurements)
** Current wind speed in m/s (hover to see current wind gust speed)